sensor_id;sensor_type;location;lat;lon;timestamp;pressure;altitude;pressure_sealevel;temperature;humidity
61292;BME280;47165;42.664;23.368;2024-01-30T00:01:37;96962.44;;;3.26;45.55
61292;BME280;47165;42.664;23.368;2024-01-30T00:04:02;96959.00;;;3.20;45.77
61292;BME280;47165;42.664;23.368;2024-01-30T00:06:28;96965.84;;;3.12;45.87
61292;BME280;47165;42.664;23.368;2024-01-30T00:08:53;96971.84;;;3.07;46.17
61292;BME280;47165;42.664;23.368;2024-01-30T00:11:19;96968.38;;;3.03;46.39
61292;BME280;47165;42.664;23.368;2024-01-30T00:13:44;96964.97;;;3.04;46.82
61292;BME280;47165;42.664;23.368;2024-01-30T00:16:23;96970.13;;;3.06;46.31
61292;BME280;47165;42.664;23.368;2024-01-30T00:18:52;96971.84;;;3.08;46.15
61292;BME280;47165;42.664;23.368;2024-01-30T00:21:19;96971.88;;;3.13;46.22
61292;BME280;47165;42.664;23.368;2024-01-30T00:23:44;96968.47;;;3.20;45.94
61292;BME280;47165;42.664;23.368;2024-01-30T00:26:10;96967.63;;;3.27;45.62
61292;BME280;47165;42.664;23.368;2024-01-30T00:28:40;96977.09;;;3.31;45.44
61292;BME280;47165;42.664;23.368;2024-01-30T00:31:05;96973.69;;;3.41;45.01
61292;BME280;47165;42.664;23.368;2024-01-30T00:33:31;96978.88;;;3.48;44.81
61292;BME280;47165;42.664;23.368;2024-01-30T00:35:56;96971.13;;;3.58;44.82
61292;BME280;47165;42.664;23.368;2024-01-30T00:38:22;96970.31;;;3.67;44.71
61292;BME280;47165;42.664;23.368;2024-01-30T00:40:48;96974.63;;;3.74;44.64
61292;BME280;47165;42.664;23.368;2024-01-30T00:43:13;96969.44;;;3.73;44.47
61292;BME280;47165;42.664;23.368;2024-01-30T00:45:39;96963.44;;;3.75;44.31
61292;BME280;47165;42.664;23.368;2024-01-30T00:48:05;96973.75;;;3.72;44.46
61292;BME280;47165;42.664;23.368;2024-01-30T00:50:30;96974.59;;;3.73;44.43
61292;BME280;47165;42.664;23.368;2024-01-30T00:55:35;96966.88;;;3.74;44.52
61292;BME280;47165;42.664;23.368;2024-01-30T00:58:01;96962.59;;;3.84;44.41
61292;BME280;47165;42.664;23.368;2024-01-30T01:00:26;96963.44;;;3.81;44.19
61292;BME280;47165;42.664;23.368;2024-01-30T01:02:55;96966.03;;;3.89;44.30
61292;BME280;47165;42.664;23.368;2024-01-30T01:05:21;96969.50;;;3.90;44.08
61292;BME280;47165;42.664;23.368;2024-01-30T01:07:46;96962.59;;;3.92;43.55
61292;BME280;47165;42.664;23.368;2024-01-30T01:10:14;96966.03;;;3.86;43.73
61292;BME280;47165;42.664;23.368;2024-01-30T01:12:40;96966.03;;;3.94;43.84
61292;BME280;47165;42.664;23.368;2024-01-30T01:15:06;96954.84;;;3.96;43.80
61292;BME280;47165;42.664;23.368;2024-01-30T01:17:36;96966.03;;;3.94;43.62
61292;BME280;47165;42.664;23.368;2024-01-30T01:20:03;96963.44;;;3.89;43.66
61292;BME280;47165;42.664;23.368;2024-01-30T01:22:30;96957.41;;;3.87;43.49
61292;BME280;47165;42.664;23.368;2024-01-30T01:24:56;96965.16;;;3.89;43.77
61292;BME280;47165;42.664;23.368;2024-01-30T01:27:22;96962.59;;;3.95;43.71
61292;BME280;47165;42.664;23.368;2024-01-30T01:29:48;96965.16;;;4.01;43.14
61292;BME280;47165;42.664;23.368;2024-01-30T01:32:15;96970.34;;;3.99;43.42
61292;BME280;47165;42.664;23.368;2024-01-30T01:34:41;96967.75;;;3.90;43.62
61292;BME280;47165;42.664;23.368;2024-01-30T01:37:06;96966.88;;;3.87;43.20
61292;BME280;47165;42.664;23.368;2024-01-30T01:39:32;96949.66;;;3.82;43.26
61292;BME280;47165;42.664;23.368;2024-01-30T01:41:58;96967.75;;;3.86;43.60
61292;BME280;47165;42.664;23.368;2024-01-30T01:44:23;96960.81;;;3.66;43.82
61292;BME280;47165;42.664;23.368;2024-01-30T01:46:49;96970.28;;;3.55;43.77
61292;BME280;47165;42.664;23.368;2024-01-30T01:49:15;96967.69;;;3.50;44.80
61292;BME280;47165;42.664;23.368;2024-01-30T01:51:42;96967.69;;;3.47;44.18
61292;BME280;47165;42.664;23.368;2024-01-30T01:54:10;96965.97;;;3.51;44.01
61292;BME280;47165;42.664;23.368;2024-01-30T01:56:36;96966.81;;;3.40;44.13
61292;BME280;47165;42.664;23.368;2024-01-30T01:59:05;96966.78;;;3.34;44.68
61292;BME280;47165;42.664;23.368;2024-01-30T02:01:33;96974.47;;;3.20;45.22
61292;BME280;47165;42.664;23.368;2024-01-30T02:03:59;96978.72;;;3.09;45.86
61292;BME280;47165;42.664;23.368;2024-01-30T02:06:26;96977.84;;;2.99;46.01
61292;BME280;47165;42.664;23.368;2024-01-30T02:08:52;96980.41;;;2.93;46.47
61292;BME280;47165;42.664;23.368;2024-01-30T02:11:18;96985.53;;;2.92;46.42
61292;BME280;47165;42.664;23.368;2024-01-30T02:13:43;96984.69;;;2.94;46.36
61292;BME280;47165;42.664;23.368;2024-01-30T02:16:09;96983.00;;;3.01;46.60
61292;BME280;47165;42.664;23.368;2024-01-30T02:18:36;96982.13;;;3.00;46.38
61292;BME280;47165;42.664;23.368;2024-01-30T02:21:07;96981.28;;;3.03;45.95
61292;BME280;47165;42.664;23.368;2024-01-30T02:23:33;96980.50;;;3.18;45.86
61292;BME280;47165;42.664;23.368;2024-01-30T02:26:00;96982.25;;;3.28;45.69
61292;BME280;47165;42.664;23.368;2024-01-30T02:28:26;96970.22;;;3.30;45.52
61292;BME280;47165;42.664;23.368;2024-01-30T02:30:52;96976.25;;;3.37;45.18
61292;BME280;47165;42.664;23.368;2024-01-30T02:33:18;96978.84;;;3.41;44.94
61292;BME280;47165;42.664;23.368;2024-01-30T02:35:43;96974.56;;;3.45;44.61
61292;BME280;47165;42.664;23.368;2024-01-30T02:38:09;96970.25;;;3.50;44.73
61292;BME280;47165;42.664;23.368;2024-01-30T02:40:34;96971.13;;;3.54;44.23
61292;BME280;47165;42.664;23.368;2024-01-30T02:43:01;96975.47;;;3.61;44.08
61292;BME280;47165;42.664;23.368;2024-01-30T02:45:27;96973.72;;;3.65;44.04
61292;BME280;47165;42.664;23.368;2024-01-30T02:47:53;96978.91;;;3.63;44.24
61292;BME280;47165;42.664;23.368;2024-01-30T02:50:18;96966.88;;;3.71;43.91
61292;BME280;47165;42.664;23.368;2024-01-30T02:52:45;96971.16;;;3.77;43.79
61292;BME280;47165;42.664;23.368;2024-01-30T02:55:11;96970.31;;;3.76;43.97
61292;BME280;47165;42.664;23.368;2024-01-30T02:57:37;96968.59;;;3.77;43.50
61292;BME280;47165;42.664;23.368;2024-01-30T03:00:03;96968.63;;;3.81;43.64
61292;BME280;47165;42.664;23.368;2024-01-30T03:02:31;96969.47;;;3.85;43.50
61292;BME280;47165;42.664;23.368;2024-01-30T03:04:56;96966.03;;;3.89;43.31
61292;BME280;47165;42.664;23.368;2024-01-30T03:07:21;96966.03;;;3.94;43.20
61292;BME280;47165;42.664;23.368;2024-01-30T03:09:47;96967.75;;;3.95;43.48
61292;BME280;47165;42.664;23.368;2024-01-30T03:12:13;96961.72;;;3.87;43.44
61292;BME280;47165;42.664;23.368;2024-01-30T03:14:38;96957.44;;;3.86;43.41
61292;BME280;47165;42.664;23.368;2024-01-30T03:17:04;96962.56;;;3.81;43.09
61292;BME280;47165;42.664;23.368;2024-01-30T03:19:29;96963.41;;;3.68;44.01
61292;BME280;47165;42.664;23.368;2024-01-30T03:21:55;96959.97;;;3.70;43.33
61292;BME280;47165;42.664;23.368;2024-01-30T03:24:20;96958.22;;;3.60;43.82
61292;BME280;47165;42.664;23.368;2024-01-30T03:26:46;96960.81;;;3.54;43.75
61292;BME280;47165;42.664;23.368;2024-01-30T03:29:11;96969.38;;;3.48;43.57
61292;BME280;47165;42.664;23.368;2024-01-30T03:31:38;96960.81;;;3.49;43.92
61292;BME280;47165;42.664;23.368;2024-01-30T03:34:04;96960.75;;;3.35;43.88
61292;BME280;47165;42.664;23.368;2024-01-30T03:36:29;96958.16;;;3.34;43.86
61292;BME280;47165;42.664;23.368;2024-01-30T03:38:58;96962.44;;;3.26;43.74
61292;BME280;47165;42.664;23.368;2024-01-30T03:41:25;96955.59;;;3.31;43.51
61292;BME280;47165;42.664;23.368;2024-01-30T03:43:50;96951.25;;;3.20;44.02
61292;BME280;47165;42.664;23.368;2024-01-30T03:46:16;96948.66;;;3.14;43.87
61292;BME280;47165;42.664;23.368;2024-01-30T03:48:41;96954.66;;;3.09;43.88
61292;BME280;47165;42.664;23.368;2024-01-30T03:51:07;96953.78;;;3.07;43.78
61292;BME280;47165;42.664;23.368;2024-01-30T03:53:32;96945.13;;;2.98;43.80
61292;BME280;47165;42.664;23.368;2024-01-30T03:55:58;96946.88;;;2.98;44.67
61292;BME280;47165;42.664;23.368;2024-01-30T03:58:23;96946.84;;;2.92;44.68
61292;BME280;47165;42.664;23.368;2024-01-30T04:00:49;96945.16;;;3.00;43.98
61292;BME280;47165;42.664;23.368;2024-01-30T04:03:15;96950.31;;;3.03;44.66
61292;BME280;47165;42.664;23.368;2024-01-30T04:08:19;96943.50;;;3.19;43.76
61292;BME280;47165;42.664;23.368;2024-01-30T04:10:44;96939.22;;;3.27;43.20
61292;BME280;47165;42.664;23.368;2024-01-30T04:13:10;96940.97;;;3.33;43.10
61292;BME280;47165;42.664;23.368;2024-01-30T04:15:36;96937.53;;;3.35;42.80
61292;BME280;47165;42.664;23.368;2024-01-30T04:18:01;96945.31;;;3.45;42.78
61292;BME280;47165;42.664;23.368;2024-01-30T04:20:27;96945.31;;;3.49;43.10
61292;BME280;47165;42.664;23.368;2024-01-30T04:22:52;96938.44;;;3.51;42.75
61292;BME280;47165;42.664;23.368;2024-01-30T04:25:18;96941.88;;;3.58;43.23
61292;BME280;47165;42.664;23.368;2024-01-30T04:27:43;96942.72;;;3.60;43.22
61292;BME280;47165;42.664;23.368;2024-01-30T04:30:09;96941.88;;;3.69;43.70
61292;BME280;47165;42.664;23.368;2024-01-30T04:32:35;96952.22;;;3.75;43.58
61292;BME280;47165;42.664;23.368;2024-01-30T04:35:01;96951.38;;;3.77;43.42
61292;BME280;47165;42.664;23.368;2024-01-30T04:37:27;96947.06;;;3.72;44.04
61292;BME280;47165;42.664;23.368;2024-01-30T04:39:54;96951.38;;;3.71;43.45
61292;BME280;47165;42.664;23.368;2024-01-30T04:42:20;96951.38;;;3.77;42.89
61292;BME280;47165;42.664;23.368;2024-01-30T04:44:46;96959.97;;;3.76;43.39
61292;BME280;47165;42.664;23.368;2024-01-30T04:47:11;96951.38;;;3.77;42.64
61292;BME280;47165;42.664;23.368;2024-01-30T04:49:40;96962.59;;;3.79;42.80
61292;BME280;47165;42.664;23.368;2024-01-30T04:52:06;96963.44;;;3.81;42.43
61292;BME280;47165;42.664;23.368;2024-01-30T04:54:31;96958.25;;;3.74;42.30
61292;BME280;47165;42.664;23.368;2024-01-30T04:56:57;96965.16;;;3.76;42.16
61292;BME280;47165;42.664;23.368;2024-01-30T04:59:23;96968.59;;;3.75;41.97
61292;BME280;47165;42.664;23.368;2024-01-30T05:01:49;96969.44;;;3.68;42.16
61292;BME280;47165;42.664;23.368;2024-01-30T05:04:14;96977.16;;;3.51;42.70
61292;BME280;47165;42.664;23.368;2024-01-30T05:06:40;96977.16;;;3.53;42.79
61292;BME280;47165;42.664;23.368;2024-01-30T05:09:05;96972.00;;;3.47;42.78
61292;BME280;47165;42.664;23.368;2024-01-30T05:11:31;96976.25;;;3.40;43.87
61292;BME280;47165;42.664;23.368;2024-01-30T05:14:01;96980.53;;;3.27;43.99
61292;BME280;47165;42.664;23.368;2024-01-30T05:16:27;96975.38;;;3.24;44.49
61292;BME280;47165;42.664;23.368;2024-01-30T05:18:53;96980.56;;;3.30;44.70
61292;BME280;47165;42.664;23.368;2024-01-30T05:21:18;96977.06;;;3.20;44.10
61292;BME280;47165;42.664;23.368;2024-01-30T05:23:44;96979.63;;;3.14;43.66
61292;BME280;47165;42.664;23.368;2024-01-30T05:26:09;96983.88;;;3.05;43.77
61292;BME280;47165;42.664;23.368;2024-01-30T05:28:35;96989.00;;;2.95;44.13
61292;BME280;47165;42.664;23.368;2024-01-30T05:31:01;96983.81;;;2.89;44.20
61292;BME280;47165;42.664;23.368;2024-01-30T05:33:28;96997.56;;;2.85;44.86
61292;BME280;47165;42.664;23.368;2024-01-30T05:35:53;96987.19;;;2.80;44.34
61292;BME280;47165;42.664;23.368;2024-01-30T05:38:19;96992.38;;;2.84;43.88
61292;BME280;47165;42.664;23.368;2024-01-30T05:40:45;96991.50;;;2.85;43.93
61292;BME280;47165;42.664;23.368;2024-01-30T05:43:11;96993.25;;;2.86;43.93
61292;BME280;47165;42.664;23.368;2024-01-30T05:45:38;96996.75;;;3.00;43.87
61292;BME280;47165;42.664;23.368;2024-01-30T05:48:04;96988.16;;;2.99;43.89
61292;BME280;47165;42.664;23.368;2024-01-30T05:50:30;96989.06;;;3.08;44.16
61292;BME280;47165;42.664;23.368;2024-01-30T05:52:56;96991.63;;;3.06;43.72
61292;BME280;47165;42.664;23.368;2024-01-30T05:55:22;96989.91;;;3.07;43.98
61292;BME280;47165;42.664;23.368;2024-01-30T05:57:47;96989.94;;;3.10;43.50
61292;BME280;47165;42.664;23.368;2024-01-30T06:00:15;96982.19;;;3.13;43.50
61292;BME280;47165;42.664;23.368;2024-01-30T06:02:41;96990.78;;;3.13;43.60
61292;BME280;47165;42.664;23.368;2024-01-30T06:05:07;96989.94;;;3.17;42.65
61292;BME280;47165;42.664;23.368;2024-01-30T06:07:32;96985.66;;;3.18;42.70
61292;BME280;47165;42.664;23.368;2024-01-30T06:09:58;96992.56;;;3.22;43.12
61292;BME280;47165;42.664;23.368;2024-01-30T06:12:27;96989.16;;;3.34;42.62
61292;BME280;47165;42.664;23.368;2024-01-30T06:14:53;96994.31;;;3.31;42.89
61292;BME280;47165;42.664;23.368;2024-01-30T06:17:22;96994.31;;;3.29;43.05
61292;BME280;47165;42.664;23.368;2024-01-30T06:19:48;96987.38;;;3.23;43.33
61292;BME280;47165;42.664;23.368;2024-01-30T06:22:13;96994.31;;;3.29;43.31
61292;BME280;47165;42.664;23.368;2024-01-30T06:24:39;96992.56;;;3.30;43.07
61292;BME280;47165;42.664;23.368;2024-01-30T06:27:04;96996.91;;;3.35;43.36
61292;BME280;47165;42.664;23.368;2024-01-30T06:29:29;96999.47;;;3.29;43.67
61292;BME280;47165;42.664;23.368;2024-01-30T06:31:55;96995.19;;;3.34;43.00
61292;BME280;47165;42.664;23.368;2024-01-30T06:34:21;96995.19;;;3.33;42.81
61292;BME280;47165;42.664;23.368;2024-01-30T06:36:47;96996.03;;;3.33;43.08
61292;BME280;47165;42.664;23.368;2024-01-30T06:39:12;96998.59;;;3.29;43.05
61292;BME280;47165;42.664;23.368;2024-01-30T06:41:37;96999.44;;;3.21;42.33
61292;BME280;47165;42.664;23.368;2024-01-30T06:44:03;96994.31;;;3.29;42.37
61292;BME280;47165;42.664;23.368;2024-01-30T06:46:30;97001.19;;;3.33;42.08
61292;BME280;47165;42.664;23.368;2024-01-30T06:48:55;96998.63;;;3.30;42.20
61292;BME280;47165;42.664;23.368;2024-01-30T06:51:21;97003.81;;;3.36;42.33
61292;BME280;47165;42.664;23.368;2024-01-30T06:53:46;97000.38;;;3.40;41.97
61292;BME280;47165;42.664;23.368;2024-01-30T06:56:12;97006.41;;;3.50;41.92
61292;BME280;47165;42.664;23.368;2024-01-30T06:58:38;97002.13;;;3.49;41.58
61292;BME280;47165;42.664;23.368;2024-01-30T07:01:04;97010.72;;;3.47;41.25
61292;BME280;47165;42.664;23.368;2024-01-30T07:03:31;97013.28;;;3.48;41.26
61292;BME280;47165;42.664;23.368;2024-01-30T07:05:56;97011.53;;;3.35;41.62
61292;BME280;47165;42.664;23.368;2024-01-30T07:08:22;97012.41;;;3.37;41.66
61292;BME280;47165;42.664;23.368;2024-01-30T07:10:48;97006.38;;;3.38;41.74
61292;BME280;47165;42.664;23.368;2024-01-30T07:13:14;97007.19;;;3.28;41.70
61292;BME280;47165;42.664;23.368;2024-01-30T07:15:42;97008.88;;;3.19;41.83
61292;BME280;47165;42.664;23.368;2024-01-30T07:18:07;97004.59;;;3.18;41.72
61292;BME280;47165;42.664;23.368;2024-01-30T07:20:33;97004.56;;;3.14;41.31
61292;BME280;47165;42.664;23.368;2024-01-30T07:22:58;97006.31;;;3.21;41.16
61292;BME280;47165;42.664;23.368;2024-01-30T07:25:24;97008.88;;;3.16;41.25
61292;BME280;47165;42.664;23.368;2024-01-30T07:27:55;97008.88;;;3.15;41.23
61292;BME280;47165;42.664;23.368;2024-01-30T07:30:21;97008.88;;;3.12;41.10
61292;BME280;47165;42.664;23.368;2024-01-30T07:32:47;97009.69;;;3.01;41.32
61292;BME280;47165;42.664;23.368;2024-01-30T07:35:13;97011.41;;;3.06;41.17
61292;BME280;47165;42.664;23.368;2024-01-30T07:37:39;97001.94;;;3.06;41.14
61292;BME280;47165;42.664;23.368;2024-01-30T07:40:05;97002.81;;;3.04;41.17
61292;BME280;47165;42.664;23.368;2024-01-30T07:42:32;97001.09;;;3.04;41.07
61292;BME280;47165;42.664;23.368;2024-01-30T07:44:57;97005.38;;;3.04;40.94
61292;BME280;47165;42.664;23.368;2024-01-30T07:47:23;97001.91;;;3.03;41.02
61292;BME280;47165;42.664;23.368;2024-01-30T07:49:48;97007.97;;;3.08;41.04
61292;BME280;47165;42.664;23.368;2024-01-30T07:52:14;96996.81;;;3.11;40.96
61292;BME280;47165;42.664;23.368;2024-01-30T07:54:42;97001.13;;;3.16;41.31
61292;BME280;47165;42.664;23.368;2024-01-30T07:57:07;96999.47;;;3.26;41.05
61292;BME280;47165;42.664;23.368;2024-01-30T07:59:32;97006.38;;;3.35;40.66
61292;BME280;47165;42.664;23.368;2024-01-30T08:01:58;97005.56;;;3.45;40.46
61292;BME280;47165;42.664;23.368;2024-01-30T08:04:23;96990.94;;;3.58;40.41
61292;BME280;47165;42.664;23.368;2024-01-30T08:06:49;96987.53;;;3.63;40.06
61292;BME280;47165;42.664;23.368;2024-01-30T08:09:14;96993.56;;;3.70;40.16
61292;BME280;47165;42.664;23.368;2024-01-30T08:11:41;96998.75;;;3.82;39.46
61292;BME280;47165;42.664;23.368;2024-01-30T08:14:06;96991.84;;;3.83;39.67
61292;BME280;47165;42.664;23.368;2024-01-30T08:16:32;96984.13;;;3.88;39.59
61292;BME280;47165;42.664;23.368;2024-01-30T08:18:57;96984.97;;;3.91;39.31
61292;BME280;47165;42.664;23.368;2024-01-30T08:21:23;96992.75;;;3.90;39.03
61292;BME280;47165;42.664;23.368;2024-01-30T08:23:48;96989.28;;;3.86;38.96
61292;BME280;47165;42.664;23.368;2024-01-30T08:26:14;96984.97;;;3.87;38.66
61292;BME280;47165;42.664;23.368;2024-01-30T08:28:39;96985.81;;;3.78;39.07
61292;BME280;47165;42.664;23.368;2024-01-30T08:31:05;96991.84;;;3.69;39.36
61292;BME280;47165;42.664;23.368;2024-01-30T08:33:30;96989.25;;;3.71;39.21
61292;BME280;47165;42.664;23.368;2024-01-30T08:35:56;96999.59;;;3.72;39.14
61292;BME280;47165;42.664;23.368;2024-01-30T08:38:21;97002.16;;;3.72;39.55
61292;BME280;47165;42.664;23.368;2024-01-30T08:40:49;96998.72;;;3.69;39.82
61292;BME280;47165;42.664;23.368;2024-01-30T08:43:14;96994.41;;;3.72;39.11
61292;BME280;47165;42.664;23.368;2024-01-30T08:45:40;97008.22;;;3.71;39.55
61292;BME280;47165;42.664;23.368;2024-01-30T08:48:06;97010.81;;;3.76;39.47
61292;BME280;47165;42.664;23.368;2024-01-30T08:50:33;97003.03;;;3.76;39.68
61292;BME280;47165;42.664;23.368;2024-01-30T08:52:59;97001.31;;;3.76;39.50
61292;BME280;47165;42.664;23.368;2024-01-30T08:55:24;97011.66;;;3.76;39.57
61292;BME280;47165;42.664;23.368;2024-01-30T08:57:49;97003.91;;;3.72;39.93
61292;BME280;47165;42.664;23.368;2024-01-30T09:00:15;97014.25;;;3.82;40.06
61292;BME280;47165;42.664;23.368;2024-01-30T09:02:41;97011.66;;;3.81;39.94
61292;BME280;47165;42.664;23.368;2024-01-30T09:05:07;97015.13;;;3.81;39.89
61292;BME280;47165;42.664;23.368;2024-01-30T09:07:32;97022.84;;;3.63;39.29
61292;BME280;47165;42.664;23.368;2024-01-30T09:09:58;97015.94;;;3.62;39.83
61292;BME280;47165;42.664;23.368;2024-01-30T09:12:23;97007.38;;;3.80;39.79
61292;BME280;47165;42.664;23.368;2024-01-30T09:14:49;97006.53;;;3.92;39.81
61292;BME280;47165;42.664;23.368;2024-01-30T09:17:14;97004.78;;;3.92;39.80
61292;BME280;47165;42.664;23.368;2024-01-30T09:19:40;96997.94;;;4.08;39.30
61292;BME280;47165;42.664;23.368;2024-01-30T09:22:06;96998.78;;;4.15;38.91
61292;BME280;47165;42.664;23.368;2024-01-30T09:24:31;97000.53;;;4.14;38.99
61292;BME280;47165;42.664;23.368;2024-01-30T09:26:57;96997.91;;;4.16;39.09
61292;BME280;47165;42.664;23.368;2024-01-30T09:29:23;97000.50;;;4.23;38.59
61292;BME280;47165;42.664;23.368;2024-01-30T09:31:49;96991.03;;;4.19;38.79
61292;BME280;47165;42.664;23.368;2024-01-30T09:34:14;96992.75;;;4.23;39.04
61292;BME280;47165;42.664;23.368;2024-01-30T09:36:40;96990.16;;;4.30;38.84
61292;BME280;47165;42.664;23.368;2024-01-30T09:39:05;96993.63;;;4.41;39.03
61292;BME280;47165;42.664;23.368;2024-01-30T09:41:32;96985.00;;;4.57;38.79
61292;BME280;47165;42.664;23.368;2024-01-30T09:44:00;96983.25;;;4.62;38.74
61292;BME280;47165;42.664;23.368;2024-01-30T09:46:28;96984.97;;;4.63;39.14
61292;BME280;47165;42.664;23.368;2024-01-30T09:48:57;96980.63;;;4.78;39.67
61292;BME280;47165;42.664;23.368;2024-01-30T09:51:23;96977.16;;;4.80;39.59
61292;BME280;47165;42.664;23.368;2024-01-30T09:53:50;96972.84;;;4.87;39.68
61292;BME280;47165;42.664;23.368;2024-01-30T09:56:18;96972.81;;;4.92;39.51
61292;BME280;47165;42.664;23.368;2024-01-30T09:58:44;96977.13;;;4.94;38.77
61292;BME280;47165;42.664;23.368;2024-01-30T10:01:09;96979.75;;;4.88;39.41
61292;BME280;47165;42.664;23.368;2024-01-30T10:03:35;96975.44;;;4.90;39.08
61292;BME280;47165;42.664;23.368;2024-01-30T10:06:01;96968.50;;;4.98;39.02
61292;BME280;47165;42.664;23.368;2024-01-30T10:08:27;96968.50;;;4.97;39.21
61292;BME280;47165;42.664;23.368;2024-01-30T10:10:53;96966.75;;;4.99;39.19
61292;BME280;47165;42.664;23.368;2024-01-30T10:13:19;96959.84;;;5.02;38.93
61292;BME280;47165;42.664;23.368;2024-01-30T10:15:44;96959.84;;;5.02;38.93
61292;BME280;47165;42.664;23.368;2024-01-30T10:18:10;96966.72;;;5.10;39.10
61292;BME280;47165;42.664;23.368;2024-01-30T10:20:36;96969.34;;;4.99;38.85
61292;BME280;47165;42.664;23.368;2024-01-30T10:23:03;96963.31;;;4.94;38.98
61292;BME280;47165;42.664;23.368;2024-01-30T10:25:30;96969.34;;;4.97;38.98
61292;BME280;47165;42.664;23.368;2024-01-30T10:27:58;96970.19;;;5.06;38.80
61292;BME280;47165;42.664;23.368;2024-01-30T10:30:24;96965.88;;;5.11;38.85
61292;BME280;47165;42.664;23.368;2024-01-30T10:32:50;96964.97;;;5.16;38.83
61292;BME280;47165;42.664;23.368;2024-01-30T10:35:17;96960.69;;;5.09;38.75
61292;BME280;47165;42.664;23.368;2024-01-30T10:37:44;96971.03;;;5.11;39.26
61292;BME280;47165;42.664;23.368;2024-01-30T10:40:13;96962.41;;;5.10;38.89
61292;BME280;47165;42.664;23.368;2024-01-30T10:42:42;96967.53;;;5.27;39.07
61292;BME280;47165;42.664;23.368;2024-01-30T10:45:11;96956.22;;;5.39;38.96
61292;BME280;47165;42.664;23.368;2024-01-30T10:47:50;96956.97;;;5.64;38.42
61292;BME280;47165;42.664;23.368;2024-01-30T10:50:16;96959.44;;;5.82;37.94
61292;BME280;47165;42.664;23.368;2024-01-30T10:52:42;96953.31;;;5.93;37.37
61292;BME280;47165;42.664;23.368;2024-01-30T10:55:09;96945.44;;;6.10;37.29
61292;BME280;47165;42.664;23.368;2024-01-30T10:57:35;96947.88;;;6.25;37.44
61292;BME280;47165;42.664;23.368;2024-01-30T11:00:07;96934.69;;;6.53;37.24
61292;BME280;47165;42.664;23.368;2024-01-30T11:02:38;96937.75;;;6.90;36.29
61292;BME280;47165;42.664;23.368;2024-01-30T11:05:08;96926.06;;;7.23;36.56
61292;BME280;47165;42.664;23.368;2024-01-30T11:07:34;96917.84;;;7.56;35.61
61292;BME280;47165;42.664;23.368;2024-01-30T11:10:00;96919.97;;;7.90;35.06
61292;BME280;47165;42.664;23.368;2024-01-30T11:12:27;96918.53;;;8.24;34.85
61292;BME280;47165;42.664;23.368;2024-01-30T11:15:07;96916.19;;;8.60;34.15
61292;BME280;47165;42.664;23.368;2024-01-30T11:17:43;96915.69;;;8.88;33.62
61292;BME280;47165;42.664;23.368;2024-01-30T11:20:11;96913.34;;;9.18;33.02
61292;BME280;47165;42.664;23.368;2024-01-30T11:22:37;96912.09;;;9.36;32.75
61292;BME280;47165;42.664;23.368;2024-01-30T11:25:03;96905.38;;;9.66;32.50
61292;BME280;47165;42.664;23.368;2024-01-30T11:27:30;96902.41;;;9.80;31.40
61292;BME280;47165;42.664;23.368;2024-01-30T11:30:04;96902.47;;;9.78;30.95
61292;BME280;47165;42.664;23.368;2024-01-30T11:32:29;96913.88;;;9.74;31.02
61292;BME280;47165;42.664;23.368;2024-01-30T11:34:55;96903.56;;;9.68;30.99
61292;BME280;47165;42.664;23.368;2024-01-30T11:37:21;96906.38;;;9.59;30.83
61292;BME280;47165;42.664;23.368;2024-01-30T11:39:48;96911.59;;;9.59;31.49
61292;BME280;47165;42.664;23.368;2024-01-30T11:42:13;96905.63;;;9.54;31.57
61292;BME280;47165;42.664;23.368;2024-01-30T11:44:39;96909.28;;;9.84;31.25
61292;BME280;47165;42.664;23.368;2024-01-30T11:47:05;96903.78;;;9.96;30.96
61292;BME280;47165;42.664;23.368;2024-01-30T11:49:30;96912.69;;;10.23;31.21
61292;BME280;47165;42.664;23.368;2024-01-30T11:51:56;96901.50;;;10.54;30.57
61292;BME280;47165;42.664;23.368;2024-01-30T11:54:22;96900.03;;;10.77;30.10
61292;BME280;47165;42.664;23.368;2024-01-30T11:56:47;96892.41;;;11.00;29.76
61292;BME280;47165;42.664;23.368;2024-01-30T11:59:13;96886.31;;;11.30;29.26
61292;BME280;47165;42.664;23.368;2024-01-30T12:01:39;96879.63;;;11.51;29.11
61292;BME280;47165;42.664;23.368;2024-01-30T12:04:07;96883.38;;;11.70;28.82
61292;BME280;47165;42.664;23.368;2024-01-30T12:06:34;96865.50;;;11.83;27.98
61292;BME280;47165;42.664;23.368;2024-01-30T12:09:02;96865.34;;;11.89;28.53
61292;BME280;47165;42.664;23.368;2024-01-30T12:11:46;96865.81;;;12.02;28.10
61292;BME280;47165;42.664;23.368;2024-01-30T12:14:12;96856.66;;;12.15;28.19
61292;BME280;47165;42.664;23.368;2024-01-30T12:16:38;96851.72;;;12.33;28.00
61292;BME280;47165;42.664;23.368;2024-01-30T12:19:03;96854.50;;;12.53;27.60
61292;BME280;47165;42.664;23.368;2024-01-30T12:21:29;96854.88;;;12.67;27.38
61292;BME280;47165;42.664;23.368;2024-01-30T12:23:56;96837.31;;;12.70;27.60
61292;BME280;47165;42.664;23.368;2024-01-30T12:26:24;96848.53;;;12.73;26.50
61292;BME280;47165;42.664;23.368;2024-01-30T12:28:54;96842.00;;;12.85;26.72
61292;BME280;47165;42.664;23.368;2024-01-30T12:31:28;96846.63;;;13.02;26.55
61292;BME280;47165;42.664;23.368;2024-01-30T12:33:54;96836.91;;;13.04;26.70
61292;BME280;47165;42.664;23.368;2024-01-30T12:36:21;96839.22;;;13.13;26.08
61292;BME280;47165;42.664;23.368;2024-01-30T12:38:47;96831.72;;;13.26;26.51
61292;BME280;47165;42.664;23.368;2024-01-30T12:41:15;96828.09;;;13.30;25.90
61292;BME280;47165;42.664;23.368;2024-01-30T12:43:41;96828.84;;;13.34;25.69
61292;BME280;47165;42.664;23.368;2024-01-30T12:46:07;96822.97;;;13.27;25.72
61292;BME280;47165;42.664;23.368;2024-01-30T12:48:33;96830.69;;;13.32;26.07
61292;BME280;47165;42.664;23.368;2024-01-30T12:50:58;96812.25;;;13.33;25.81
61292;BME280;47165;42.664;23.368;2024-01-30T12:53:24;96816.78;;;13.52;25.70
61292;BME280;47165;42.664;23.368;2024-01-30T12:55:50;96816.56;;;13.58;25.89
61292;BME280;47165;42.664;23.368;2024-01-30T12:58:16;96818.97;;;13.62;25.70
61292;BME280;47165;42.664;23.368;2024-01-30T13:00:41;96812.09;;;13.60;25.09